Time;durP1;ratioP1;P1;durP2;ratioP2;P2;SDS_P1;SDS_P2;PMS_P1;PMS_P2;Temp;Humidity;BMP_temperature;BMP_pressure;BME280_temperature;BME280_humidity;BME280_pressure;Samples;Min_cycle;Max_cycle;Signal;HPM_P1;HPM_P2
2023/02/09 00:02:19;;;;;;;78.70;33.30;;;;;;;-8.60;64.50;104198.39;107599;1254;108696;-60
2023/02/09 00:04:47;;;;;;;70.10;31.40;;;;;;;-8.62;64.36;104197.10;107588;1254;108618;-61
2023/02/09 00:07:16;;;;;;;68.50;30.30;;;;;;;-8.67;64.40;104203.14;107544;1256;97719;-61
2023/02/09 00:09:44;;;;;;;65.80;30.30;;;;;;;-8.71;64.46;104195.30;107560;1256;97903;-61
2023/02/09 00:15:00;;;;;;;66.00;30.00;;;;;;;-8.73;64.69;104193.10;107637;1254;109458;-62
2023/02/09 00:17:32;;;;;;;64.20;27.80;;;;;;;-8.79;64.68;104190.73;107675;1251;107509;-60
2023/02/09 00:20:05;;;;;;;66.50;30.20;;;;;;;-8.85;64.86;104189.79;107643;1254;97860;-60
2023/02/09 00:22:33;;;;;;;63.80;28.60;;;;;;;-8.85;64.95;104192.57;107619;1257;98465;-62
2023/02/09 00:25:02;;;;;;;65.20;29.30;;;;;;;-8.86;64.89;104188.88;107572;1254;111800;-61
2023/02/09 00:27:34;;;;;;;67.30;31.00;;;;;;;-8.86;64.98;104181.72;107476;1254;109632;-60
2023/02/09 00:30:04;;;;;;;69.90;31.20;;;;;;;-8.87;64.68;104177.14;107584;1253;107823;-61
2023/02/09 00:32:32;;;;;;;66.40;29.40;;;;;;;-8.85;64.95;104181.23;107642;1254;97707;-61
2023/02/09 00:35:01;;;;;;;58.50;29.20;;;;;;;-8.83;64.82;104173.86;107579;1254;97847;-62
2023/02/09 00:37:29;;;;;;;66.40;30.10;;;;;;;-8.85;64.82;104174.98;107639;1254;112749;-61
2023/02/09 00:39:58;;;;;;;69.20;28.90;;;;;;;-8.89;64.65;104172.16;107575;1254;109931;-60
2023/02/09 00:42:26;;;;;;;69.80;29.30;;;;;;;-8.93;64.62;104170.08;107683;1254;107561;-60
2023/02/09 00:44:54;;;;;;;63.40;29.70;;;;;;;-8.99;64.81;104171.91;107566;1254;97742;-62
2023/02/09 00:47:23;;;;;;;60.70;27.50;;;;;;;-9.03;64.79;104166.48;107596;1253;98422;-61
2023/02/09 00:49:51;;;;;;;62.70;28.30;;;;;;;-9.07;64.65;104162.81;107578;1254;111802;-62
2023/02/09 00:52:19;;;;;;;63.50;28.30;;;;;;;-9.09;64.64;104160.80;107595;1254;110804;-61
2023/02/09 00:54:48;;;;;;;66.00;27.80;;;;;;;-9.15;64.58;104161.75;107452;1257;106747;-61
2023/02/09 00:57:16;;;;;;;63.90;29.20;;;;;;;-9.21;64.61;104159.04;107598;1255;97901;-60
2023/02/09 00:59:45;;;;;;;62.40;28.70;;;;;;;-9.25;64.49;104157.79;107693;1254;97713;-61
2023/02/09 01:02:14;;;;;;;66.90;28.20;;;;;;;-9.25;64.60;104157.45;107675;1254;112080;-60
2023/02/09 01:04:42;;;;;;;55.70;26.90;;;;;;;-9.25;64.69;104153.95;107670;1254;109372;-61
2023/02/09 01:07:12;;;;;;;58.80;26.90;;;;;;;-9.30;64.66;104155.28;107633;1254;108219;-62
2023/02/09 01:09:40;;;;;;;57.70;25.30;;;;;;;-9.34;64.32;104155.77;107638;1254;97840;-60
2023/02/09 01:12:09;;;;;;;57.30;26.50;;;;;;;-9.34;64.51;104154.23;107624;1254;97928;-62
2023/02/09 01:14:38;;;;;;;54.40;26.20;;;;;;;-9.37;64.37;104147.78;107660;1254;112207;-62
2023/02/09 01:17:06;;;;;;;66.00;27.60;;;;;;;-9.40;64.43;104142.98;107565;1251;110148;-61
2023/02/09 01:19:35;;;;;;;58.70;26.10;;;;;;;-9.42;64.68;104144.45;107654;1252;108418;-61
2023/02/09 01:22:03;;;;;;;64.20;27.40;;;;;;;-9.44;64.27;104139.29;107691;1254;97736;-61
2023/02/09 01:24:32;;;;;;;57.50;28.20;;;;;;;-9.46;64.43;104132.60;107657;1254;97740;-61
2023/02/09 01:27:01;;;;;;;62.70;27.40;;;;;;;-9.48;64.64;104128.52;107630;1254;112398;-61
2023/02/09 01:29:31;;;;;;;57.10;27.50;;;;;;;-9.48;64.50;104131.45;107625;1254;108826;-61
2023/02/09 01:32:00;;;;;;;52.90;26.40;;;;;;;-9.46;64.48;104133.31;107661;1251;108719;-60
2023/02/09 01:34:29;;;;;;;58.40;27.00;;;;;;;-9.46;64.60;104128.27;107657;1253;97820;-61
2023/02/09 01:36:57;;;;;;;61.50;27.30;;;;;;;-9.48;64.42;104123.32;107661;1254;97809;-64
2023/02/09 01:39:26;;;;;;;64.00;29.10;;;;;;;-9.50;64.55;104122.53;107609;1254;112320;-61
2023/02/09 01:41:54;;;;;;;63.90;27.90;;;;;;;-9.49;64.49;104122.55;107562;1254;109267;-60
2023/02/09 01:44:22;;;;;;;55.10;26.60;;;;;;;-9.53;64.17;104120.27;107569;1254;108529;-59
2023/02/09 01:46:51;;;;;;;53.70;26.00;;;;;;;-9.62;63.93;104122.28;107557;1253;97873;-60
2023/02/09 01:49:25;;;;;;;52.70;24.60;;;;;;;-9.70;63.85;104121.02;107612;1252;97703;-60
2023/02/09 01:52:00;;;;;;;65.80;27.20;;;;;;;-9.75;63.96;104122.48;107696;1251;111450;-62
2023/02/09 01:54:37;;;;;;;48.30;24.10;;;;;;;-9.80;63.79;104125.57;107630;1251;109832;-61
2023/02/09 01:57:17;;;;;;;60.30;25.20;;;;;;;-9.82;64.09;104125.45;107551;1251;108557;-62
2023/02/09 01:59:50;;;;;;;54.80;25.80;;;;;;;-9.87;64.04;104123.83;107593;1254;97822;-61
2023/02/09 02:02:20;;;;;;;67.50;26.00;;;;;;;-9.88;64.32;104124.95;107617;1251;97705;-62
2023/02/09 02:04:50;;;;;;;57.80;26.40;;;;;;;-9.87;64.26;104119.48;107624;1251;113202;-62
2023/02/09 02:07:37;;;;;;;63.70;27.50;;;;;;;-9.88;64.36;104120.11;107665;1251;110118;-60
2023/02/09 02:10:06;;;;;;;60.80;26.10;;;;;;;-9.87;64.24;104108.15;107619;1251;108464;-60
2023/02/09 02:12:36;;;;;;;61.90;26.40;;;;;;;-9.88;64.12;104104.31;107482;1254;97918;-60
2023/02/09 02:15:06;;;;;;;55.20;25.80;;;;;;;-9.90;64.12;104110.10;107594;1256;97837;-60
2023/02/09 02:18:04;;;;;;;63.80;26.40;;;;;;;-9.92;64.30;104112.09;107628;1254;110985;-60
2023/02/09 02:20:48;;;;;;;62.40;27.10;;;;;;;-9.96;64.11;104118.68;107589;1252;109196;-61
2023/02/09 02:23:38;;;;;;;67.10;29.90;;;;;;;-10.01;64.85;104124.48;107578;1253;109270;-60
2023/02/09 02:26:31;;;;;;;68.00;28.60;;;;;;;-10.03;64.82;104118.66;107598;1253;97950;-61
2023/02/09 02:29:42;;;;;;;66.00;28.90;;;;;;;-10.07;65.09;104117.94;107666;1254;97730;-60
2023/02/09 02:32:56;;;;;;;72.10;30.20;;;;;;;-10.02;65.03;104118.19;107522;1254;111620;-61
2023/02/09 02:35:30;;;;;;;69.30;29.90;;;;;;;-10.00;65.05;104113.77;107350;1254;109315;-60
2023/02/09 02:38:18;;;;;;;64.40;26.90;;;;;;;-9.98;65.25;104114.90;107562;1252;107634;-60
2023/02/09 02:41:07;;;;;;;59.20;27.00;;;;;;;-10.00;64.91;104116.35;107572;1253;97838;-61
2023/02/09 02:44:00;;;;;;;61.30;28.10;;;;;;;-10.03;64.96;104113.96;107585;1256;97979;-63
2023/02/09 02:46:51;;;;;;;63.10;25.60;;;;;;;-10.03;64.82;104114.82;107610;1253;112267;-60
2023/02/09 02:49:31;;;;;;;57.50;26.20;;;;;;;-10.05;64.76;104106.77;107600;1253;109702;-61
2023/02/09 02:52:05;;;;;;;50.60;25.70;;;;;;;-10.07;64.77;104105.61;107562;1253;108896;-60
2023/02/09 02:54:59;;;;;;;52.70;25.40;;;;;;;-10.08;64.70;104104.34;107585;1253;97825;-60
2023/02/09 02:57:32;;;;;;;54.40;24.70;;;;;;;-10.15;64.46;104107.31;107597;1252;97880;-60
2023/02/09 03:00:07;;;;;;;57.50;26.70;;;;;;;-10.19;64.48;104101.86;107599;1256;112381;-61
2023/02/09 03:02:40;;;;;;;56.80;25.70;;;;;;;-10.20;64.52;104092.13;107485;1254;110201;-60
2023/02/09 03:05:09;;;;;;;55.00;25.50;;;;;;;-10.22;64.79;104089.23;107471;1253;108437;-61
2023/02/09 03:07:37;;;;;;;61.00;25.50;;;;;;;-10.22;64.70;104089.23;107423;1254;97816;-62
2023/02/09 03:10:22;;;;;;;55.80;24.40;;;;;;;-10.23;64.71;104091.97;107474;1253;97909;-61
2023/02/09 03:13:03;;;;;;;61.10;27.00;;;;;;;-10.28;64.29;104089.62;107515;1254;109441;-62
2023/02/09 03:15:41;;;;;;;54.00;26.10;;;;;;;-10.31;64.62;104090.49;107519;1254;109026;-61
2023/02/09 03:18:35;;;;;;;61.50;25.20;;;;;;;-10.36;64.44;104091.83;107424;1254;107764;-60
2023/02/09 03:21:20;;;;;;;51.50;25.40;;;;;;;-10.40;64.47;104090.09;107482;1254;97803;-60
2023/02/09 03:24:05;;;;;;;54.90;24.90;;;;;;;-10.44;64.05;104090.23;107600;1252;98593;-60
2023/02/09 03:26:46;;;;;;;53.90;26.10;;;;;;;-10.46;64.60;104092.55;107613;1253;112326;-60
2023/02/09 03:29:17;;;;;;;62.00;27.50;;;;;;;-10.46;64.57;104087.52;107590;1253;109325;-62
2023/02/09 03:31:47;;;;;;;52.90;24.30;;;;;;;-10.44;64.56;104086.24;107552;1253;107773;-60
2023/02/09 03:34:17;;;;;;;64.50;27.40;;;;;;;-10.42;64.67;104090.33;107646;1253;97899;-61
2023/02/09 03:36:51;;;;;;;65.30;26.60;;;;;;;-10.41;64.43;104088.27;107709;1254;97915;-60
2023/02/09 03:39:19;;;;;;;61.30;27.20;;;;;;;-10.45;64.36;104093.13;107668;1254;110880;-60
2023/02/09 03:41:48;;;;;;;60.10;26.00;;;;;;;-10.48;64.41;104088.25;107665;1253;110188;-60
2023/02/09 03:44:25;;;;;;;63.30;28.60;;;;;;;-10.53;64.64;104091.30;107579;1252;107383;-61
2023/02/09 03:46:58;;;;;;;55.70;27.30;;;;;;;-10.55;64.59;104090.20;107668;1255;97965;-60
2023/02/09 03:49:45;;;;;;;77.20;28.10;;;;;;;-10.57;64.29;104089.38;107669;1253;97977;-60
2023/02/09 03:52:15;;;;;;;66.40;28.60;;;;;;;-10.62;64.11;104085.45;107579;1254;111568;-60
2023/02/09 03:54:44;;;;;;;60.90;28.30;;;;;;;-10.68;64.20;104084.95;107604;1254;110004;-62
2023/02/09 03:57:12;;;;;;;66.40;26.10;;;;;;;-10.70;64.22;104086.41;107632;1253;108588;-61
2023/02/09 03:59:40;;;;;;;60.40;26.30;;;;;;;-10.72;64.35;104082.90;107672;1251;97858;-61
2023/02/09 04:02:09;;;;;;;57.90;25.80;;;;;;;-10.71;64.36;104073.89;107707;1255;98363;-62
2023/02/09 04:04:38;;;;;;;60.30;26.30;;;;;;;-10.71;64.23;104080.48;107697;1256;109996;-63
2023/02/09 04:07:06;;;;;;;55.10;24.50;;;;;;;-10.75;64.36;104082.52;107692;1251;110124;-61
2023/02/09 04:09:36;;;;;;;58.60;25.80;;;;;;;-10.79;64.10;104085.27;107672;1251;108203;-61
2023/02/09 04:12:04;;;;;;;60.50;27.00;;;;;;;-10.77;64.15;104082.92;107676;1251;97816;-61
2023/02/09 04:14:33;;;;;;;58.70;24.50;;;;;;;-10.75;64.43;104079.92;107667;1251;97720;-62
2023/02/09 04:17:01;;;;;;;52.50;25.70;;;;;;;-10.74;64.24;104082.58;107711;1252;111772;-61
2023/02/09 04:19:30;;;;;;;50.30;23.90;;;;;;;-10.75;64.26;104083.73;107683;1251;109643;-61
2023/02/09 04:21:58;;;;;;;58.90;24.90;;;;;;;-10.76;64.00;104081.59;107637;1251;109223;-62
2023/02/09 04:24:27;;;;;;;61.40;24.30;;;;;;;-10.80;63.98;104081.39;107682;1251;97835;-62
2023/02/09 04:26:56;;;;;;;56.70;26.60;;;;;;;-10.85;63.85;104075.41;107623;1253;97753;-62
2023/02/09 04:29:24;;;;;;;50.10;24.00;;;;;;;-10.88;64.07;104075.42;107688;1254;111923;-62
2023/02/09 04:31:53;;;;;;;60.30;24.90;;;;;;;-10.89;63.84;104081.08;107669;1251;109930;-62
2023/02/09 04:34:23;;;;;;;50.80;22.40;;;;;;;-10.93;63.98;104081.75;107520;1253;107695;-62
2023/02/09 04:36:52;;;;;;;52.50;24.00;;;;;;;-10.97;63.89;104082.02;107556;1254;97832;-62
2023/02/09 04:39:20;;;;;;;51.10;23.90;;;;;;;-10.99;63.81;104086.77;107571;1253;97707;-62
2023/02/09 04:41:49;;;;;;;52.70;23.30;;;;;;;-11.01;64.15;104084.44;107561;1254;111248;-62
2023/02/09 04:44:17;;;;;;;51.20;23.50;;;;;;;-11.00;64.03;104087.08;107602;1253;110108;-62
2023/02/09 04:46:46;;;;;;;47.40;22.90;;;;;;;-11.00;64.04;104085.02;107589;1255;107913;-61
2023/02/09 04:49:14;;;;;;;47.90;21.60;;;;;;;-11.05;63.73;104088.05;107653;1256;98531;-62
2023/02/09 04:51:42;;;;;;;43.30;22.40;;;;;;;-11.08;63.58;104086.16;107697;1253;97723;-63
2023/02/09 04:54:11;;;;;;;55.80;23.00;;;;;;;-11.09;63.91;104086.77;107670;1254;112215;-61
2023/02/09 04:56:39;;;;;;;53.30;23.50;;;;;;;-11.12;63.67;104088.16;107675;1254;108269;-61
2023/02/09 05:01:56;;;;;;;52.80;24.50;;;;;;;-11.12;63.58;104088.51;107656;1255;97973;-61
2023/02/09 05:04:24;;;;;;;56.70;24.40;;;;;;;-11.10;63.58;104086.34;107708;1251;99583;-60
2023/02/09 05:06:53;;;;;;;58.10;23.60;;;;;;;-11.11;63.74;104088.39;107698;1254;111224;-61
2023/02/09 05:09:21;;;;;;;58.80;24.60;;;;;;;-11.13;63.10;104087.76;107683;1253;109634;-61
2023/02/09 05:11:49;;;;;;;59.90;25.30;;;;;;;-11.15;63.48;104090.95;107650;1252;107265;-62
2023/02/09 05:14:18;;;;;;;63.30;25.40;;;;;;;-11.22;63.02;104095.95;107572;1256;97826;-62
2023/02/09 05:16:46;;;;;;;56.90;23.90;;;;;;;-11.26;63.43;104102.98;107610;1251;97717;-62
2023/02/09 05:19:14;;;;;;;58.70;23.90;;;;;;;-11.31;63.14;104103.96;107661;1254;111721;-62
2023/02/09 05:21:43;;;;;;;55.30;23.50;;;;;;;-11.32;63.36;104103.20;107630;1252;109732;-62
2023/02/09 05:24:11;;;;;;;64.90;25.20;;;;;;;-11.35;63.24;104112.90;107601;1254;107965;-61
2023/02/09 05:26:39;;;;;;;58.40;25.30;;;;;;;-11.42;63.14;104111.98;107602;1253;97873;-62
2023/02/09 05:29:08;;;;;;;56.90;25.10;;;;;;;-11.44;63.26;104110.84;107618;1251;98410;-62
2023/02/09 05:31:37;;;;;;;59.10;24.40;;;;;;;-11.44;63.31;104104.08;107695;1251;112228;-62
2023/02/09 05:34:05;;;;;;;60.50;24.60;;;;;;;-11.45;63.19;104110.59;107677;1254;109645;-61
2023/02/09 05:36:34;;;;;;;64.30;30.80;;;;;;;-11.43;63.30;104111.38;107596;1254;108182;-61
2023/02/09 05:39:03;;;;;;;62.30;26.80;;;;;;;-11.44;63.15;104110.33;107553;1252;97830;-61
2023/02/09 05:44:18;;;;;;;77.90;28.20;;;;;;;-11.43;63.18;104104.27;107581;1254;111824;-62
2023/02/09 05:46:46;;;;;;;60.10;23.60;;;;;;;-11.41;63.33;104104.39;107632;1255;111576;-62
2023/02/09 05:49:15;;;;;;;66.40;25.40;;;;;;;-11.42;63.34;104110.06;107642;1251;108195;-61
2023/02/09 05:51:43;;;;;;;75.70;33.20;;;;;;;-11.43;63.38;104111.08;107676;1251;97832;-61
2023/02/09 05:54:12;;;;;;;60.60;26.50;;;;;;;-11.44;63.15;104118.65;107596;1255;98066;-60
2023/02/09 05:56:40;;;;;;;68.20;26.60;;;;;;;-11.41;63.23;104116.52;107644;1254;112218;-62
2023/02/09 05:59:08;;;;;;;62.60;25.80;;;;;;;-11.40;63.04;104120.59;107633;1254;109246;-61
2023/02/09 06:01:38;;;;;;;60.30;25.30;;;;;;;-11.37;63.26;104120.95;107640;1252;108714;-61
2023/02/09 06:04:08;;;;;;;67.20;26.50;;;;;;;-11.33;63.23;104116.66;107581;1253;97710;-61
2023/02/09 06:06:36;;;;;;;58.50;26.30;;;;;;;-11.28;63.35;104117.05;107711;1253;97728;-63
2023/02/09 06:09:04;;;;;;;62.20;28.00;;;;;;;-11.26;62.81;104107.30;107701;1251;111721;-61
2023/02/09 06:11:34;;;;;;;63.00;28.00;;;;;;;-11.27;62.82;104110.55;107630;1251;109830;-61
2023/02/09 06:14:02;;;;;;;77.80;30.20;;;;;;;-11.25;62.86;104113.27;107634;1254;108655;-61
2023/02/09 06:16:31;;;;;;;78.90;33.00;;;;;;;-11.24;63.05;104113.02;107624;1251;97845;-62
2023/02/09 06:18:59;;;;;;;79.80;31.40;;;;;;;-11.20;63.08;104114.77;107611;1252;97725;-61
2023/02/09 06:21:27;;;;;;;71.00;29.00;;;;;;;-11.16;62.87;104112.89;107641;1251;113147;-59
2023/02/09 06:23:55;;;;;;;84.00;33.60;;;;;;;-11.12;62.68;104108.95;107706;1252;109256;-61
2023/02/09 06:26:24;;;;;;;81.10;31.90;;;;;;;-11.06;63.13;104106.36;107509;1254;107665;-60
2023/02/09 06:28:53;;;;;;;63.20;28.20;;;;;;;-10.98;63.23;104106.06;107599;1254;97947;-60
2023/02/09 06:31:21;;;;;;;70.50;28.60;;;;;;;-10.93;63.08;104099.27;107600;1253;98389;-60
2023/02/09 06:33:50;;;;;;;75.80;30.90;;;;;;;-10.81;63.40;104096.93;107621;1254;111943;-62
2023/02/09 06:36:18;;;;;;;80.30;31.00;;;;;;;-10.69;63.10;104099.98;107594;1254;109253;-62
2023/02/09 06:38:48;;;;;;;74.00;31.20;;;;;;;-10.60;63.19;104104.48;107600;1252;107416;-59
2023/02/09 06:41:16;;;;;;;84.30;33.50;;;;;;;-10.53;63.16;104099.67;107448;1251;97851;-63
2023/02/09 06:43:44;;;;;;;68.30;31.50;;;;;;;-10.43;63.33;104098.41;107549;1253;98357;-61
2023/02/09 06:46:13;;;;;;;70.30;32.00;;;;;;;-10.36;63.26;104095.61;107625;1253;111263;-61
2023/02/09 06:48:41;;;;;;;97.30;37.20;;;;;;;-10.28;63.51;104093.45;107633;1254;109195;-62
2023/02/09 06:51:13;;;;;;;77.30;35.20;;;;;;;-10.22;63.97;104088.39;107637;1253;107538;-61
2023/02/09 06:53:42;;;;;;;93.00;36.20;;;;;;;-10.11;63.84;104085.48;107508;1252;97883;-63
2023/02/09 06:56:12;;;;;;;86.90;36.00;;;;;;;-9.99;64.01;104089.15;107593;1253;97730;-61
2023/02/09 06:58:41;;;;;;;78.00;36.70;;;;;;;-9.88;64.09;104089.88;107691;1252;110815;-62
2023/02/09 07:01:14;;;;;;;96.00;34.40;;;;;;;-9.76;64.35;104087.89;107582;1254;109543;-63
2023/02/09 07:03:43;;;;;;;71.80;32.80;;;;;;;-9.67;65.04;104089.02;107657;1251;107799;-60
2023/02/09 07:06:14;;;;;;;66.50;32.60;;;;;;;-9.63;64.80;104082.78;107582;1252;97956;-61
2023/02/09 07:08:44;;;;;;;79.50;36.60;;;;;;;-9.52;64.92;104081.23;107437;1258;97953;-63
2023/02/09 07:11:14;;;;;;;83.50;38.10;;;;;;;-9.41;65.04;104080.55;107615;1254;111228;-61
2023/02/09 07:13:43;;;;;;;78.20;36.20;;;;;;;-9.31;65.07;104079.78;107621;1253;109585;-62
2023/02/09 07:16:11;;;;;;;78.50;36.10;;;;;;;-9.28;65.09;104075.40;107569;1253;107620;-62
2023/02/09 07:18:40;;;;;;;73.40;35.50;;;;;;;-9.20;65.06;104074.02;107436;1254;97795;-60
2023/02/09 07:21:14;;;;;;;84.50;38.60;;;;;;;-9.13;65.24;104078.52;107582;1252;97809;-62
2023/02/09 07:23:42;;;;;;;88.10;41.90;;;;;;;-9.02;65.29;104068.60;107575;1254;112207;-62
2023/02/09 07:26:16;;;;;;;82.40;37.10;;;;;;;-8.95;65.22;104068.05;107507;1255;110567;-62
2023/02/09 07:28:45;;;;;;;;;;;;;;;-8.92;65.13;104072.35;107643;1252;108412;-62
2023/02/09 07:31:15;;;;;;;74.50;36.60;;;;;;;-8.86;65.37;104074.37;107600;1253;97845;-62
2023/02/09 07:33:44;;;;;;;95.30;39.80;;;;;;;-8.71;65.30;104071.25;107698;1252;97842;-61
2023/02/09 07:36:14;;;;;;;77.60;33.00;;;;;;;-8.55;65.48;104068.27;107651;1251;111332;-61
2023/02/09 07:38:43;;;;;;;70.30;30.90;;;;;;;-8.53;65.26;104069.95;107628;1253;110166;-61
2023/02/09 07:41:14;;;;;;;83.90;34.80;;;;;;;-8.49;65.33;104076.73;107607;1251;109041;-62
2023/02/09 07:43:43;;;;;;;79.40;38.30;;;;;;;-8.46;65.32;104076.64;107620;1252;97836;-61
2023/02/09 07:46:15;;;;;;;58.00;29.60;;;;;;;-8.38;65.30;104071.08;107585;1251;98472;-62
2023/02/09 07:48:44;;;;;;;70.80;29.70;;;;;;;-8.42;65.77;104071.43;107592;1251;111806;-62
2023/02/09 07:51:14;;;;;;;71.80;32.30;;;;;;;-8.43;65.48;104072.79;107609;1254;108656;-62
2023/02/09 07:53:43;;;;;;;56.30;28.20;;;;;;;-8.34;65.93;104079.23;107616;1251;107496;-61
2023/02/09 07:56:12;;;;;;;71.70;31.20;;;;;;;-8.29;65.84;104071.61;107610;1251;97827;-62
2023/02/09 07:58:40;;;;;;;66.40;29.00;;;;;;;-8.27;65.91;104075.03;107580;1252;97855;-61
2023/02/09 08:01:11;;;;;;;70.50;30.60;;;;;;;-8.24;65.75;104072.74;107598;1253;111760;-60
2023/02/09 08:03:43;;;;;;;62.60;26.10;;;;;;;-8.16;65.84;104069.41;107607;1254;110123;-61
2023/02/09 08:06:23;;;;;;;61.20;27.40;;;;;;;-8.06;65.74;104065.29;107561;1254;109539;-61
2023/02/09 08:09:09;;;;;;;62.40;30.10;;;;;;;-7.89;65.83;104053.99;107604;1254;97835;-60
2023/02/09 08:11:40;;;;;;;67.70;30.50;;;;;;;-7.72;65.58;104049.10;107604;1251;97847;-61
2023/02/09 08:14:41;;;;;;;64.50;30.60;;;;;;;-7.62;65.38;104048.80;107661;1254;111947;-62
2023/02/09 08:17:19;;;;;;;59.60;28.70;;;;;;;-7.37;65.48;104049.08;107615;1253;109786;-61
2023/02/09 08:20:19;;;;;;;59.70;28.70;;;;;;;-7.19;65.09;104044.01;107599;1253;108496;-62
2023/02/09 08:22:52;;;;;;;61.90;27.60;;;;;;;-6.96;65.07;104045.05;107593;1253;97838;-61
2023/02/09 08:25:23;;;;;;;62.00;25.20;;;;;;;-6.82;64.03;104039.41;107664;1252;97908;-61
2023/02/09 08:27:52;;;;;;;53.20;26.10;;;;;;;-6.76;63.75;104036.85;107623;1251;111207;-62
2023/02/09 08:30:21;;;;;;;58.80;27.40;;;;;;;-6.58;64.01;104032.09;107576;1254;110532;-62
2023/02/09 08:32:49;;;;;;;65.70;28.40;;;;;;;-6.38;63.58;104033.16;107561;1255;108908;-61
2023/02/09 08:35:17;;;;;;;55.60;26.30;;;;;;;-6.29;62.60;104036.80;107617;1253;97817;-61
2023/02/09 08:37:46;;;;;;;52.40;24.80;;;;;;;-6.13;62.78;104042.55;107396;1253;98072;-61
2023/02/09 08:40:14;;;;;;;56.10;27.90;;;;;;;-6.00;62.05;104041.05;107582;1256;112104;-61
2023/02/09 08:42:42;;;;;;;60.30;27.60;;;;;;;-5.91;61.60;104042.38;107579;1254;109495;-61
2023/02/09 08:45:11;;;;;;;61.40;27.50;;;;;;;-5.76;61.08;104039.02;107634;1254;107663;-61
2023/02/09 08:47:39;;;;;;;54.50;23.40;;;;;;;-5.64;60.59;104041.66;107609;1253;97944;-62
2023/02/09 08:50:08;;;;;;;63.40;26.00;;;;;;;-5.54;60.47;104035.17;107543;1251;98354;-62
2023/02/09 08:52:36;;;;;;;54.80;25.60;;;;;;;-5.35;60.12;104033.31;107600;1251;111333;-62
2023/02/09 08:55:06;;;;;;;55.80;25.10;;;;;;;-5.21;59.44;104037.41;107622;1254;109663;-62
2023/02/09 08:57:34;;;;;;;51.00;24.20;;;;;;;-5.13;58.85;104036.59;107621;1253;106097;-62
2023/02/09 09:00:13;;;;;;;52.20;22.90;;;;;;;-4.96;58.95;104036.03;107610;1253;97857;-62
2023/02/09 09:02:41;;;;;;;48.40;23.60;;;;;;;-4.76;58.27;104031.01;107628;1256;97723;-63
2023/02/09 09:05:10;;;;;;;51.70;24.80;;;;;;;-4.63;57.92;104033.09;107647;1254;112332;-62
2023/02/09 09:07:38;;;;;;;63.40;25.70;;;;;;;-4.37;58.02;104028.91;107581;1254;110142;-63
2023/02/09 09:10:08;;;;;;;53.40;25.00;;;;;;;-4.07;58.13;104020.19;107432;1254;107790;-62
2023/02/09 09:12:36;;;;;;;56.10;24.90;;;;;;;-3.70;57.68;104017.05;107614;1255;97714;-61
2023/02/09 09:15:05;;;;;;;69.40;27.00;;;;;;;-3.36;56.29;104022.91;107638;1253;97834;-61
2023/02/09 09:17:34;;;;;;;52.90;23.70;;;;;;;-3.01;53.81;104018.56;107636;1254;112212;-62
2023/02/09 09:20:03;;;;;;;68.30;25.40;;;;;;;-2.40;52.27;104011.66;107622;1253;109686;-62
2023/02/09 09:22:31;;;;;;;56.10;25.10;;;;;;;-1.53;51.47;104010.58;107682;1254;106122;-62
2023/02/09 09:24:59;;;;;;;52.80;25.00;;;;;;;-0.70;50.35;104004.58;107641;1253;97845;-61
2023/02/09 09:27:28;;;;;;;47.90;23.50;;;;;;;0.13;50.08;103995.44;107646;1252;97864;-62
2023/02/09 09:29:56;;;;;;;50.60;26.00;;;;;;;0.91;47.81;103993.23;107623;1254;112173;-61
2023/02/09 09:32:24;;;;;;;58.60;27.70;;;;;;;1.49;46.82;103989.67;107468;1253;110167;-62
2023/02/09 09:34:58;;;;;;;62.00;29.00;;;;;;;2.33;47.27;103988.77;107530;1254;107278;-62
2023/02/09 09:37:26;;;;;;;62.40;29.60;;;;;;;2.85;46.71;103985.41;107596;1254;97944;-62
2023/02/09 09:39:55;;;;;;;52.90;26.90;;;;;;;3.38;46.20;103979.45;107661;1252;97822;-62
2023/02/09 09:42:31;;;;;;;56.10;24.20;;;;;;;3.98;46.27;103974.02;107636;1254;111097;-61
2023/02/09 09:45:00;;;;;;;51.60;27.10;;;;;;;4.22;40.79;103979.11;107622;1254;110066;-62
2023/02/09 09:47:41;;;;;;;64.50;31.50;;;;;;;4.11;38.91;103980.65;107615;1254;108205;-62
2023/02/09 09:50:24;;;;;;;46.30;26.40;;;;;;;4.24;40.24;103980.88;107632;1251;97843;-63
2023/02/09 09:53:00;;;;;;;44.70;24.40;;;;;;;4.40;38.65;103984.27;107634;1253;97726;-63
2023/02/09 09:55:30;;;;;;;38.10;23.40;;;;;;;4.75;38.31;103980.31;107665;1251;111348;-61
2023/02/09 09:58:03;;;;;;;48.10;22.70;;;;;;;5.11;38.22;103970.93;107615;1256;109951;-63
2023/02/09 10:00:37;;;;;;;38.00;21.40;;;;;;;5.32;37.03;103970.27;107670;1256;107807;-62
2023/02/09 10:03:17;;;;;;;41.30;22.70;;;;;;;5.23;35.85;103967.57;107633;1255;98340;-62
2023/02/09 10:05:54;;;;;;;49.50;24.40;;;;;;;5.46;36.09;103964.55;107617;1251;97810;-62
2023/02/09 10:08:40;;;;;;;43.90;23.60;;;;;;;6.08;36.75;103951.94;107640;1254;111398;-62
2023/02/09 10:11:19;;;;;;;40.40;23.20;;;;;;;6.62;35.77;103945.18;107621;1253;109847;-62
2023/02/09 10:13:51;;;;;;;46.10;24.90;;;;;;;7.21;37.32;103941.04;107603;1253;108889;-62
2023/02/09 10:16:33;;;;;;;54.40;26.30;;;;;;;7.86;36.84;103931.56;107557;1253;97899;-62
2023/02/09 10:19:04;;;;;;;42.00;24.80;;;;;;;8.42;34.99;103924.16;107605;1252;97805;-62
2023/02/09 10:21:35;;;;;;;54.80;26.80;;;;;;;8.87;35.57;103919.62;107572;1256;111082;-61
2023/02/09 10:24:13;;;;;;;45.80;26.50;;;;;;;9.12;33.07;103916.17;107590;1254;109455;-63
2023/02/09 10:26:42;;;;;;;51.90;28.10;;;;;;;9.30;33.09;103912.89;107595;1254;108156;-64
2023/02/09 10:29:10;;;;;;;53.20;26.50;;;;;;;9.69;32.78;103916.96;107583;1254;97753;-64
2023/02/09 10:31:43;;;;;;;51.70;25.90;;;;;;;9.90;31.71;103912.46;107638;1253;98605;-62
2023/02/09 10:34:16;;;;;;;45.40;25.00;;;;;;;9.96;30.56;103908.67;107638;1254;111812;-64
2023/02/09 10:36:53;;;;;;;43.80;25.10;;;;;;;10.12;30.46;103910.43;107652;1254;109328;-63
2023/02/09 10:39:34;;;;;;;47.40;26.20;;;;;;;10.42;31.80;103898.21;107613;1254;107265;-63
2023/02/09 10:42:18;;;;;;;40.80;26.30;;;;;;;10.83;30.22;103900.09;107624;1251;97855;-63
2023/02/09 10:44:52;;;;;;;41.40;24.90;;;;;;;10.57;28.70;103899.27;107026;1255;763339;-63
2023/02/09 10:47:23;;;;;;;50.80;25.10;;;;;;;10.05;28.75;103899.55;107633;1255;112295;-63
2023/02/09 10:49:58;;;;;;;44.60;25.90;;;;;;;10.44;30.83;103893.11;107637;1254;110084;-63
2023/02/09 10:52:35;;;;;;;51.40;26.50;;;;;;;11.00;31.09;103883.95;107579;1254;108049;-64
2023/02/09 10:55:21;;;;;;;47.30;25.60;;;;;;;11.33;29.65;103878.64;107635;1254;97838;-65
2023/02/09 10:57:50;;;;;;;46.90;27.60;;;;;;;11.59;30.04;103871.77;107582;1254;97898;-63
2023/02/09 11:00:18;;;;;;;49.50;26.70;;;;;;;11.78;28.28;103865.75;107578;1254;112056;-62
2023/02/09 11:03:00;;;;;;;47.80;25.70;;;;;;;11.75;30.11;103866.23;107598;1254;109750;-63
2023/02/09 11:05:34;;;;;;;48.70;26.20;;;;;;;12.14;28.59;103862.00;107563;1253;108493;-63
2023/02/09 11:08:15;;;;;;;44.90;23.80;;;;;;;11.95;27.81;103860.69;107643;1254;97858;-63
2023/02/09 11:11:30;;;;;;;52.00;25.20;;;;;;;12.09;27.98;103859.38;107669;1252;97710;-64
2023/02/09 11:14:00;;;;;;;41.10;24.80;;;;;;;12.44;27.93;103854.67;107614;1253;111835;-62
2023/02/09 11:16:35;;;;;;;42.70;24.80;;;;;;;12.87;27.25;103853.16;107661;1254;110066;-63
2023/02/09 11:19:21;;;;;;;46.60;25.80;;;;;;;12.88;25.81;103852.77;107599;1254;107195;-63
2023/02/09 11:22:11;;;;;;;45.80;23.50;;;;;;;12.75;25.93;103848.87;107625;1252;97855;-64
2023/02/09 11:24:54;;;;;;;34.40;21.70;;;;;;;12.60;25.24;103845.13;107626;1253;97837;-65
2023/02/09 11:27:28;;;;;;;38.80;24.10;;;;;;;12.88;26.31;103841.43;107562;1254;111364;-64